Time;durP1;ratioP1;P1;durP2;ratioP2;P2;SDS_P1;SDS_P2;PMS_P1;PMS_P2;Temp;Humidity;BMP_temperature;BMP_pressure;BME280_temperature;BME280_humidity;BME280_pressure;Samples;Min_cycle;Max_cycle;Signal;HPM_P1;HPM_P2
2022/09/24 00:01:37;;;;;;;9.00;8.60;;;;;;;5.87;80.29;93114.59;5131236;28;20180;-75
2022/09/24 00:04:10;;;;;;;10.33;9.83;;;;;;;5.98;81.45;93129.28;5131440;28;20239;-75
2022/09/24 00:06:45;;;;;;;10.40;9.90;;;;;;;5.75;80.98;93101.72;5129418;28;20175;-76
2022/09/24 00:09:12;;;;;;;9.93;9.53;;;;;;;6.00;81.55;93119.47;5130785;28;20223;-75
2022/09/24 00:11:38;;;;;;;11.10;10.60;;;;;;;6.04;81.67;93125.72;5132478;28;20211;-75
2022/09/24 00:14:05;;;;;;;11.07;10.57;;;;;;;6.04;81.53;93120.53;5130340;28;20219;-75
2022/09/24 00:16:33;;;;;;;10.97;10.23;;;;;;;5.90;82.57;93127.09;5131156;28;20172;-75
2022/09/24 00:18:59;;;;;;;10.13;9.73;;;;;;;6.00;81.22;93132.41;5129049;28;20242;-75
2022/09/24 00:21:28;;;;;;;10.90;10.13;;;;;;;5.95;81.55;93124.56;5130678;28;20258;-75
2022/09/24 00:23:56;;;;;;;10.03;9.63;;;;;;;5.85;81.71;93122.59;5129436;28;20231;-75
2022/09/24 00:29:09;;;;;;;10.67;10.07;;;;;;;5.89;82.57;93120.34;5130069;27;20286;-75
2022/09/24 00:31:35;;;;;;;9.87;9.37;;;;;;;5.92;82.79;93127.63;5131791;28;20711;-75
2022/09/24 00:34:00;;;;;;;10.00;9.50;;;;;;;6.01;81.74;93121.81;5130078;28;20223;-75
2022/09/24 00:36:26;;;;;;;10.10;9.50;;;;;;;5.85;82.49;93117.44;5131386;28;20216;-75
2022/09/24 00:38:56;;;;;;;9.17;8.77;;;;;;;5.80;82.74;93108.78;5130244;28;20235;-75
2022/09/24 00:41:27;;;;;;;10.67;10.13;;;;;;;5.80;83.51;93116.56;5130286;28;20179;-75
2022/09/24 00:43:53;;;;;;;9.83;9.33;;;;;;;5.80;83.25;93108.78;5130119;27;20263;-75
2022/09/24 00:46:28;;;;;;;11.03;10.43;;;;;;;5.79;83.42;93120.94;5130828;28;20207;-75
2022/09/24 00:48:59;;;;;;;9.57;9.03;;;;;;;5.90;83.40;93121.94;5131226;27;20234;-75
2022/09/24 00:51:27;;;;;;;12.43;11.73;;;;;;;5.74;82.97;93099.38;5130220;28;20253;-75
2022/09/24 00:53:58;;;;;;;11.07;10.57;;;;;;;5.62;84.21;93114.22;5130073;28;20315;-75
2022/09/24 00:56:24;;;;;;;10.13;9.53;;;;;;;5.66;84.33;93110.13;5129962;28;20187;-75
2022/09/24 00:58:53;;;;;;;11.43;10.73;;;;;;;5.36;85.62;93096.69;5129060;28;20260;-75
2022/09/24 01:01:21;;;;;;;11.20;10.60;;;;;;;5.42;86.34;93113.88;5129467;28;20184;-75
2022/09/24 01:03:49;;;;;;;11.00;10.33;;;;;;;5.38;86.19;93105.81;5129982;27;20712;-76
2022/09/24 01:06:15;;;;;;;11.47;10.77;;;;;;;5.39;85.90;93086.66;5130288;28;20198;-75
2022/09/24 01:08:42;;;;;;;11.20;10.63;;;;;;;5.12;86.02;93053.88;5130875;28;20179;-76
2022/09/24 01:11:35;;;;;;;11.77;10.97;;;;;;;5.45;86.15;93103.06;5129968;28;20274;-75
2022/09/24 01:14:49;;;;;;;11.00;10.40;;;;;;;5.42;85.96;93098.34;5127444;28;20230;-75
2022/09/24 01:17:20;;;;;;;11.40;10.80;;;;;;;5.41;86.77;93094.19;5093837;28;20191;-75
2022/09/24 01:20:01;;;;;;;12.40;11.70;;;;;;;5.39;86.54;93097.00;5130067;28;20304;-75
2022/09/24 01:22:54;;;;;;;11.83;11.03;;;;;;;5.20;87.52;93081.94;5127088;28;20194;-75
2022/09/24 01:25:42;;;;;;;12.60;11.83;;;;;;;5.31;87.39;93094.03;5128499;28;20223;-76
2022/09/24 01:28:25;;;;;;;12.33;11.53;;;;;;;5.30;88.24;93098.44;5130561;28;20329;-75
2022/09/24 01:30:58;;;;;;;11.83;11.13;;;;;;;5.18;88.95;93096.91;5130046;28;20246;-75
2022/09/24 01:33:27;;;;;;;11.90;11.23;;;;;;;5.28;88.88;93100.47;5128391;28;21065;-75
2022/09/24 01:36:00;;;;;;;9.87;9.33;;;;;;;5.38;88.20;93099.84;5129976;28;20176;-76
2022/09/24 01:38:33;;;;;;;11.10;10.50;;;;;;;5.13;87.93;93078.72;5127148;28;20222;-75
2022/09/24 01:41:02;;;;;;;11.37;10.67;;;;;;;5.22;88.41;93098.00;5130892;28;20199;-75
2022/09/24 01:43:29;;;;;;;11.57;10.97;;;;;;;5.15;88.68;93098.19;5128580;28;20183;-76
2022/09/24 01:45:58;;;;;;;11.40;10.80;;;;;;;5.17;87.96;93097.94;5129560;28;20305;-76
2022/09/24 01:48:25;;;;;;;11.23;10.63;;;;;;;4.95;88.78;93093.44;5127787;28;20176;-76
2022/09/24 01:50:59;;;;;;;11.40;10.90;;;;;;;4.97;89.05;93094.00;5130032;28;20217;-75
2022/09/24 01:53:30;;;;;;;10.93;10.30;;;;;;;5.04;89.42;93109.38;5128229;28;20179;-75
2022/09/24 01:56:04;;;;;;;12.37;11.57;;;;;;;5.24;87.84;93111.50;5127671;27;20180;-76
2022/09/24 01:58:37;;;;;;;12.50;11.80;;;;;;;5.12;88.18;93100.44;5128286;28;20179;-75
2022/09/24 02:01:12;;;;;;;12.80;12.10;;;;;;;5.07;88.10;93088.22;5128903;28;20206;-76
2022/09/24 02:03:48;;;;;;;12.27;11.50;;;;;;;5.11;88.22;93107.41;5129066;28;20194;-75
2022/09/24 02:06:21;;;;;;;12.53;11.57;;;;;;;5.18;88.35;93104.69;5129111;28;20193;-76
2022/09/24 02:08:48;;;;;;;11.90;10.93;;;;;;;5.05;88.39;93103.16;5128145;28;20230;-76
2022/09/24 02:11:20;;;;;;;12.70;12.00;;;;;;;5.14;88.52;93113.94;5128773;28;20211;-75
2022/09/24 02:13:54;;;;;;;11.17;10.47;;;;;;;5.00;88.45;93107.50;5125833;27;20231;-75
2022/09/24 02:16:30;;;;;;;10.90;10.20;;;;;;;4.93;88.73;93115.38;5128567;28;20194;-75
2022/09/24 02:18:59;;;;;;;11.50;10.80;;;;;;;5.02;88.55;93131.31;5127075;28;20225;-75
2022/09/24 02:21:26;;;;;;;11.57;10.87;;;;;;;4.91;89.01;93127.75;5126419;28;20183;-75
2022/09/24 02:24:00;;;;;;;12.33;11.53;;;;;;;4.79;89.25;93121.84;5129084;28;20222;-76
2022/09/24 02:26:26;;;;;;;11.43;10.67;;;;;;;4.79;90.15;93132.97;5129081;27;20194;-76
2022/09/24 02:28:51;;;;;;;12.70;12.00;;;;;;;4.85;90.17;93141.63;5128667;28;20293;-75
2022/09/24 02:31:23;;;;;;;11.20;10.60;;;;;;;4.75;90.00;93134.44;5129002;28;20222;-75
2022/09/24 02:36:34;;;;;;;12.90;12.00;;;;;;;4.86;89.87;93146.56;5129008;28;20278;-76
2022/09/24 02:39:00;;;;;;;13.13;12.33;;;;;;;4.81;90.07;93145.66;5128428;28;20227;-75
2022/09/24 02:41:26;;;;;;;11.97;11.23;;;;;;;4.89;90.03;93146.09;5127152;28;20175;-76
2022/09/24 02:43:52;;;;;;;12.20;11.50;;;;;;;4.85;89.98;93145.00;5129360;28;20295;-75
2022/09/24 02:46:18;;;;;;;11.97;11.17;;;;;;;4.86;89.56;93153.53;5129125;28;20191;-75
2022/09/24 02:48:43;;;;;;;12.43;11.53;;;;;;;4.64;90.68;93148.19;5129166;28;20286;-76
2022/09/24 02:51:09;;;;;;;13.27;12.53;;;;;;;4.77;90.26;93149.72;5128073;28;20214;-75
2022/09/24 02:53:34;;;;;;;12.17;11.43;;;;;;;4.60;92.10;93147.09;5128822;28;20258;-75
2022/09/24 02:56:00;;;;;;;12.07;11.40;;;;;;;4.76;91.16;93150.75;5126438;28;20179;-75
2022/09/24 02:58:30;;;;;;;11.93;11.23;;;;;;;4.72;91.36;93154.81;5127424;28;20175;-75
2022/09/24 03:00:56;;;;;;;12.20;11.33;;;;;;;4.79;90.92;93158.81;5128455;28;20183;-75
2022/09/24 03:03:22;;;;;;;12.13;11.43;;;;;;;4.79;90.73;93156.25;5127773;28;20191;-75
2022/09/24 03:05:53;;;;;;;11.90;11.20;;;;;;;4.78;90.92;93159.84;5128061;28;20275;-76
2022/09/24 03:08:20;;;;;;;11.50;10.47;;;;;;;4.65;91.12;93143.81;5127823;28;20179;-75
2022/09/24 03:10:46;;;;;;;10.57;9.97;;;;;;;4.61;90.67;93120.22;5128473;28;20262;-75
2022/09/24 03:13:12;;;;;;;11.97;11.27;;;;;;;4.60;91.54;93149.69;5128894;28;20192;-75
2022/09/24 03:15:37;;;;;;;11.23;10.53;;;;;;;4.73;90.91;93151.22;5126112;28;20211;-75
2022/09/24 03:18:03;;;;;;;11.00;10.23;;;;;;;4.57;91.65;93150.13;5127902;28;20211;-75
2022/09/24 03:20:29;;;;;;;11.40;10.70;;;;;;;4.63;91.05;93154.38;5128213;28;20211;-75
2022/09/24 03:22:54;;;;;;;12.63;11.93;;;;;;;4.52;90.42;93131.13;5131855;28;20209;-75
2022/09/24 03:25:20;;;;;;;11.33;10.53;;;;;;;4.52;91.02;93141.47;5131477;28;20220;-75
2022/09/24 03:27:46;;;;;;;10.93;10.33;;;;;;;4.37;91.81;93148.94;5132385;28;20251;-76
2022/09/24 03:32:56;;;;;;;11.20;10.60;;;;;;;4.23;92.02;93153.56;5130481;28;20198;-75
2022/09/24 03:35:22;;;;;;;10.60;10.00;;;;;;;4.48;91.50;93146.31;5131599;28;20220;-75
2022/09/24 03:37:47;;;;;;;11.27;10.67;;;;;;;4.51;89.76;93145.84;5130557;28;20179;-76
2022/09/24 03:40:13;;;;;;;10.87;10.17;;;;;;;4.48;91.03;93168.81;5131189;28;20227;-75
2022/09/24 03:42:38;;;;;;;11.77;10.97;;;;;;;4.57;90.50;93173.41;5131057;28;20191;-75
2022/09/24 03:45:05;;;;;;;12.20;11.50;;;;;;;4.40;92.14;93169.16;5132453;28;20223;-75
2022/09/24 03:47:30;;;;;;;10.87;10.27;;;;;;;4.51;91.20;93170.94;5131299;28;20202;-75
2022/09/24 03:49:56;;;;;;;11.03;10.43;;;;;;;4.48;90.30;93156.66;5130727;28;20219;-75
2022/09/24 03:52:22;;;;;;;11.00;10.30;;;;;;;4.35;90.63;93146.59;5131097;28;20283;-75
2022/09/24 03:54:48;;;;;;;11.30;10.67;;;;;;;4.57;90.16;93170.81;5131235;27;20279;-75
2022/09/24 03:57:14;;;;;;;10.90;10.20;;;;;;;4.40;89.66;93158.81;5131032;28;20200;-76
2022/09/24 03:59:43;;;;;;;11.43;10.70;;;;;;;4.28;90.95;93160.66;5131180;28;20229;-75
2022/09/24 04:02:09;;;;;;;12.13;11.43;;;;;;;4.23;91.84;93178.63;5131617;28;20279;-75
2022/09/24 04:04:35;;;;;;;10.87;10.27;;;;;;;4.41;91.22;93174.09;5129291;27;20227;-75
2022/09/24 04:07:00;;;;;;;10.73;10.13;;;;;;;4.26;91.44;93176.38;5130969;28;20241;-75
2022/09/24 04:09:25;;;;;;;11.83;10.97;;;;;;;4.32;91.00;93177.25;5129941;28;20226;-75
2022/09/24 04:11:52;;;;;;;10.67;9.97;;;;;;;4.40;91.33;93175.13;5132250;28;20211;-76
2022/09/24 04:14:18;;;;;;;12.33;11.43;;;;;;;4.23;91.77;93166.50;5129741;28;20248;-75
2022/09/24 04:16:44;;;;;;;10.87;10.27;;;;;;;4.52;89.80;93177.69;5131611;28;20195;-75
2022/09/24 04:19:10;;;;;;;11.23;10.53;;;;;;;4.35;90.20;93166.47;5129741;28;20234;-75
2022/09/24 04:21:36;;;;;;;11.27;10.67;;;;;;;3.95;92.34;93153.47;5130922;28;20209;-75
2022/09/24 04:24:02;;;;;;;11.20;10.60;;;;;;;4.28;90.99;93173.56;5131214;28;20227;-75
2022/09/24 04:26:27;;;;;;;11.17;10.57;;;;;;;4.36;90.23;93184.31;5129026;28;20199;-75
2022/09/24 04:28:53;;;;;;;10.87;10.07;;;;;;;4.36;90.96;93186.91;5131012;28;20241;-75
2022/09/24 04:31:18;;;;;;;10.83;10.03;;;;;;;4.39;90.26;93188.28;5131576;28;20213;-75
2022/09/24 04:33:44;;;;;;;12.27;11.57;;;;;;;4.23;91.38;93184.59;5129921;28;20235;-76
2022/09/24 04:36:09;;;;;;;10.50;9.80;;;;;;;4.42;90.94;93204.09;5130866;28;20213;-76
2022/09/24 04:38:34;;;;;;;12.63;11.73;;;;;;;4.42;90.72;93188.59;5130748;28;20201;-75
2022/09/24 04:41:05;;;;;;;12.27;11.57;;;;;;;4.37;90.96;93174.78;5129584;28;22005;-75
2022/09/24 04:43:31;;;;;;;11.60;10.90;;;;;;;4.66;90.54;93197.09;5130201;28;20289;-76
2022/09/24 04:45:58;;;;;;;11.90;11.20;;;;;;;4.71;90.29;93197.19;5127894;28;20171;-75
2022/09/24 04:48:24;;;;;;;12.20;11.40;;;;;;;4.67;90.42;93181.34;5130968;28;20812;-75
2022/09/24 04:50:49;;;;;;;12.83;12.00;;;;;;;4.79;90.65;93179.50;5129101;28;20203;-74
2022/09/24 04:53:15;;;;;;;12.57;11.77;;;;;;;4.89;90.81;93177.13;5131275;28;20198;-75
2022/09/24 04:55:40;;;;;;;12.07;11.37;;;;;;;4.91;91.18;93189.84;5128648;28;20223;-75
2022/09/24 04:58:06;;;;;;;11.43;10.83;;;;;;;5.01;90.57;93171.13;5130960;27;20239;-75
2022/09/24 05:00:32;;;;;;;13.17;12.27;;;;;;;5.04;90.42;93186.19;5128554;28;20261;-75
2022/09/24 05:02:59;;;;;;;12.77;11.97;;;;;;;4.92;90.95;93163.75;5129569;28;20187;-75
2022/09/24 05:05:25;;;;;;;13.07;12.03;;;;;;;5.05;90.91;93177.41;5126686;28;20214;-75
2022/09/24 05:07:50;;;;;;;12.37;11.47;;;;;;;4.95;90.59;93175.41;5130336;28;20199;-76
2022/09/24 05:10:16;;;;;;;11.67;10.97;;;;;;;5.18;90.67;93197.84;5130127;28;20236;-75
2022/09/24 05:12:41;;;;;;;12.63;11.70;;;;;;;5.27;90.82;93193.88;5129290;28;20226;-75
2022/09/24 05:15:07;;;;;;;12.43;11.77;;;;;;;5.32;90.49;93194.75;5128405;28;20260;-75
2022/09/24 05:17:32;;;;;;;12.07;11.17;;;;;;;5.57;90.00;93202.19;5130484;28;20191;-75
2022/09/24 05:20:00;;;;;;;14.47;12.30;;;;;;;5.60;89.80;93207.69;5129308;28;20312;-75
2022/09/24 05:22:28;;;;;;;13.13;12.07;;;;;;;5.66;89.74;93209.34;5128919;28;20259;-76
2022/09/24 05:24:54;;;;;;;13.40;12.50;;;;;;;5.88;90.05;93204.28;5129022;28;20230;-75
2022/09/24 05:27:22;;;;;;;11.33;10.37;;;;;;;5.90;89.26;93210.03;5128372;28;20195;-75
2022/09/24 05:29:47;;;;;;;12.17;11.37;;;;;;;5.97;89.83;93202.88;5129129;28;20394;-75
2022/09/24 05:32:16;;;;;;;12.33;11.63;;;;;;;6.11;88.41;93212.69;5130324;28;20211;-75
2022/09/24 05:34:43;;;;;;;11.47;10.67;;;;;;;6.20;87.81;93202.69;5128567;28;21217;-75
2022/09/24 05:37:09;;;;;;;10.83;10.13;;;;;;;6.15;88.30;93194.84;5128102;28;20191;-75
2022/09/24 05:39:34;;;;;;;11.90;11.10;;;;;;;6.30;87.90;93205.44;5128865;28;20221;-76
2022/09/24 05:42:02;;;;;;;12.53;11.20;;;;;;;6.48;87.25;93202.56;5130480;28;20183;-75
2022/09/24 05:44:28;;;;;;;11.67;10.87;;;;;;;6.72;85.40;93206.53;5126401;28;20219;-75
2022/09/24 05:46:53;;;;;;;13.13;12.27;;;;;;;6.64;86.30;93206.97;5129935;28;20187;-75
2022/09/24 05:49:19;;;;;;;13.73;12.63;;;;;;;6.77;86.00;93203.22;5127775;28;20232;-75
2022/09/24 05:51:47;;;;;;;14.20;13.10;;;;;;;6.79;85.83;93217.53;5129812;28;20203;-75
2022/09/24 05:54:13;;;;;;;14.20;12.80;;;;;;;6.64;86.29;93216.53;5127203;28;20248;-75
2022/09/24 05:56:38;;;;;;;12.67;11.57;;;;;;;6.57;87.03;93208.16;5129955;28;20191;-75
2022/09/24 05:59:04;;;;;;;14.13;13.13;;;;;;;6.59;87.08;93232.81;5127552;28;20317;-75
2022/09/24 06:01:29;;;;;;;13.80;12.70;;;;;;;6.99;85.40;93227.38;5129416;28;20192;-75
2022/09/24 06:03:55;;;;;;;14.47;13.37;;;;;;;6.87;85.38;93230.09;5127301;28;20306;-75
2022/09/24 06:06:22;;;;;;;15.50;14.20;;;;;;;6.84;86.22;93229.78;5129672;28;20171;-75
2022/09/24 06:08:47;;;;;;;14.30;13.17;;;;;;;6.83;87.16;93226.41;5129188;28;20300;-75
2022/09/24 06:11:13;;;;;;;15.03;13.83;;;;;;;6.95;86.84;93226.28;5129030;28;20223;-75
2022/09/24 06:13:39;;;;;;;14.00;12.93;;;;;;;7.06;85.80;93228.78;5126594;28;20185;-75
2022/09/24 06:16:07;;;;;;;14.67;13.40;;;;;;;7.10;84.87;93219.47;5127961;28;20251;-75
2022/09/24 06:18:38;;;;;;;15.07;13.63;;;;;;;7.27;84.28;93233.16;5128128;28;20188;-75
2022/09/24 06:21:09;;;;;;;17.63;14.07;;;;;;;7.53;82.60;93237.59;5128429;27;20187;-75
2022/09/24 06:23:35;;;;;;;13.63;12.53;;;;;;;7.48;83.26;93237.56;5126752;28;20187;-75
2022/09/24 06:26:04;;;;;;;13.33;12.43;;;;;;;7.73;82.85;93248.22;5128939;28;20211;-75
2022/09/24 06:28:29;;;;;;;14.73;13.53;;;;;;;7.42;82.88;93248.94;5126942;28;20183;-75
2022/09/24 06:30:54;;;;;;;13.53;12.53;;;;;;;7.86;80.87;93250.41;5126849;28;20293;-75
2022/09/24 06:33:20;;;;;;;14.43;13.33;;;;;;;7.69;81.53;93249.72;5127634;28;20202;-75
2022/09/24 06:35:47;;;;;;;14.80;13.70;;;;;;;7.97;81.48;93241.66;5129494;28;20219;-75
2022/09/24 06:38:14;;;;;;;13.10;12.10;;;;;;;8.22;80.52;93255.94;5127548;28;20358;-75
2022/09/24 06:40:41;;;;;;;14.17;13.07;;;;;;;8.44;79.16;93256.63;5128911;28;20339;-75
2022/09/24 06:43:08;;;;;;;14.27;13.07;;;;;;;8.63;76.86;93261.22;5127361;28;20641;-75
2022/09/24 06:45:34;;;;;;;14.87;13.57;;;;;;;8.52;77.25;93263.97;5126413;28;20294;-75
2022/09/24 06:48:01;;;;;;;14.13;13.03;;;;;;;8.46;78.28;93254.56;5128572;28;20946;-75
2022/09/24 06:50:29;;;;;;;14.47;13.27;;;;;;;8.16;79.52;93260.28;5128375;28;20290;-75
2022/09/24 06:52:55;;;;;;;13.83;12.73;;;;;;;8.78;75.24;93268.34;5128464;28;20179;-75
2022/09/24 06:55:21;;;;;;;13.43;12.53;;;;;;;8.72;76.92;93264.13;5128093;28;20223;-76
2022/09/24 06:57:46;;;;;;;13.90;12.87;;;;;;;8.62;76.17;93249.25;5131729;28;20216;-75
2022/09/24 07:00:13;;;;;;;12.57;11.77;;;;;;;9.14;74.75;93264.88;5132052;28;20233;-75
2022/09/24 07:02:39;;;;;;;13.27;12.10;;;;;;;9.12;74.37;93259.94;5131685;28;20253;-75
2022/09/24 07:05:05;;;;;;;13.60;12.43;;;;;;;8.95;74.54;93266.38;5131828;28;20227;-75
2022/09/24 07:07:34;;;;;;;11.53;10.67;;;;;;;8.98;73.99;93242.41;5131634;28;20183;-75
2022/09/24 07:10:05;;;;;;;13.87;12.87;;;;;;;9.30;72.70;93267.31;5130980;28;20228;-75
2022/09/24 07:12:31;;;;;;;11.30;10.53;;;;;;;9.43;72.14;93266.06;5132569;28;20211;-75
2022/09/24 07:14:57;;;;;;;12.80;11.90;;;;;;;9.49;71.85;93265.06;5132687;28;20910;-75
2022/09/24 07:17:24;;;;;;;12.73;11.83;;;;;;;9.37;71.60;93241.03;5130017;28;20175;-75
2022/09/24 07:19:49;;;;;;;12.40;11.67;;;;;;;9.40;73.04;93251.72;5131483;27;20287;-75
2022/09/24 07:22:15;;;;;;;11.43;10.77;;;;;;;9.86;70.60;93260.47;5132506;28;20212;-75
2022/09/24 07:24:40;;;;;;;12.47;11.53;;;;;;;9.89;69.96;93267.75;5131698;27;20286;-75
2022/09/24 07:27:06;;;;;;;11.87;11.10;;;;;;;9.52;72.16;93251.50;5131671;28;20198;-75
2022/09/24 07:29:32;;;;;;;12.53;11.70;;;;;;;9.52;72.17;93256.72;5131437;28;20223;-75
2022/09/24 07:31:58;;;;;;;13.07;11.87;;;;;;;10.01;70.71;93264.94;5132365;27;20271;-75
2022/09/24 07:34:23;;;;;;;13.97;12.87;;;;;;;9.95;71.12;93256.28;5130449;28;20223;-76
2022/09/24 07:36:49;;;;;;;12.83;12.00;;;;;;;10.23;68.46;93268.09;5131483;28;20183;-75
2022/09/24 07:39:15;;;;;;;12.07;11.13;;;;;;;10.23;68.89;93261.06;5130322;27;20235;-75
2022/09/24 07:41:41;;;;;;;13.03;12.13;;;;;;;10.40;68.83;93260.78;5131671;28;20180;-74
2022/09/24 07:44:07;;;;;;;12.37;11.23;;;;;;;10.22;70.00;93263.94;5130900;28;20261;-77
2022/09/24 07:46:33;;;;;;;12.13;11.33;;;;;;;10.17;71.72;93259.50;5130057;28;20194;-75
2022/09/24 07:48:58;;;;;;;13.03;11.83;;;;;;;10.39;69.98;93260.03;5131621;28;20299;-75
2022/09/24 07:51:26;;;;;;;12.80;12.00;;;;;;;10.65;66.98;93261.59;5130650;28;20207;-75
2022/09/24 07:53:51;;;;;;;12.07;11.30;;;;;;;10.47;68.45;93243.84;5130839;28;20243;-75
2022/09/24 07:56:17;;;;;;;12.87;11.67;;;;;;;10.84;66.21;93267.84;5131199;28;20179;-75
2022/09/24 07:58:42;;;;;;;11.73;10.90;;;;;;;10.70;66.94;93253.75;5129527;27;20231;-75
2022/09/24 08:01:08;;;;;;;12.80;11.90;;;;;;;10.87;65.79;93264.69;5129413;28;20195;-75
2022/09/24 08:03:33;;;;;;;13.53;11.97;;;;;;;10.80;66.71;93256.34;5130051;28;20246;-75
2022/09/24 08:06:00;;;;;;;13.27;12.23;;;;;;;10.73;67.65;93258.44;5130146;28;20187;-75
2022/09/24 08:08:26;;;;;;;12.60;11.60;;;;;;;10.78;66.13;93252.44;5129997;28;20172;-73
2022/09/24 08:10:52;;;;;;;12.70;11.60;;;;;;;11.04;65.99;93265.19;5130576;28;20199;-75
2022/09/24 08:13:17;;;;;;;13.00;11.90;;;;;;;11.19;65.21;93265.13;5130525;28;20243;-74
2022/09/24 08:15:42;;;;;;;12.20;11.30;;;;;;;11.26;64.03;93270.88;5131190;28;20219;-75
2022/09/24 08:18:08;;;;;;;11.57;10.87;;;;;;;11.29;64.76;93269.56;5129971;28;20202;-74
2022/09/24 08:20:36;;;;;;;12.50;11.50;;;;;;;10.90;67.03;93274.63;5131397;28;20251;-75
2022/09/24 08:23:04;;;;;;;12.53;11.63;;;;;;;10.95;65.22;93255.53;5131094;27;20705;-75
2022/09/24 08:25:30;;;;;;;11.87;10.87;;;;;;;10.97;64.84;93262.06;5130806;28;20226;-75
2022/09/24 08:28:06;;;;;;;12.47;11.67;;;;;;;11.00;62.38;93214.50;5131956;28;20241;-75
2022/09/24 08:30:33;;;;;;;12.70;11.83;;;;;;;11.50;62.33;93270.28;5130341;27;20230;-75
2022/09/24 08:32:58;;;;;;;11.77;10.73;;;;;;;11.46;62.81;93250.94;5131016;28;20192;-76
2022/09/24 08:35:24;;;;;;;12.70;11.80;;;;;;;11.69;60.81;93252.97;5130279;28;20231;-75
2022/09/24 08:37:52;;;;;;;11.57;10.87;;;;;;;11.54;61.42;93250.38;5129650;28;20187;-76
2022/09/24 08:40:25;;;;;;;11.40;10.60;;;;;;;11.80;60.13;93262.34;5130850;28;20223;-76
2022/09/24 08:43:24;;;;;;;12.77;11.87;;;;;;;11.86;61.12;93259.41;5129279;28;20193;-75
2022/09/24 08:48:44;;;;;;;12.57;11.63;;;;;;;11.86;60.98;93253.41;5129932;28;20236;-76
2022/09/24 08:51:19;;;;;;;13.27;12.17;;;;;;;12.12;59.15;93262.69;5130076;28;20240;-75
2022/09/24 08:53:50;;;;;;;11.33;10.63;;;;;;;12.18;59.13;93262.38;5130738;28;20223;-75
2022/09/24 08:56:24;;;;;;;12.63;11.83;;;;;;;12.27;57.41;93265.19;5129351;28;20173;-74
2022/09/24 08:58:57;;;;;;;11.33;10.63;;;;;;;12.25;56.99;93247.13;5129330;27;20246;-75
2022/09/24 09:01:37;;;;;;;12.63;11.73;;;;;;;12.25;58.35;93252.38;5129083;28;20215;-76
2022/09/24 09:04:15;;;;;;;11.83;11.13;;;;;;;12.03;59.82;93238.13;5128550;28;20249;-75
2022/09/24 09:07:09;;;;;;;11.73;10.80;;;;;;;12.38;59.41;93256.19;5129142;28;20185;-75
2022/09/24 09:09:45;;;;;;;11.97;11.07;;;;;;;12.41;60.03;93253.03;5129666;28;20239;-75
2022/09/24 09:12:33;;;;;;;11.67;10.77;;;;;;;12.66;57.21;93253.63;5129884;27;20219;-75
2022/09/24 09:15:11;;;;;;;10.73;9.73;;;;;;;12.72;56.92;93256.97;5126656;28;20230;-76
2022/09/24 09:17:59;;;;;;;11.30;10.40;;;;;;;13.00;56.11;93253.59;5129470;28;20184;-76
2022/09/24 09:20:42;;;;;;;10.97;10.27;;;;;;;13.13;55.09;93254.78;5127757;28;20229;-76
2022/09/24 09:23:33;;;;;;;11.27;10.50;;;;;;;12.81;56.18;93255.31;5128582;28;20252;-76
2022/09/24 09:25:59;;;;;;;11.63;10.57;;;;;;;13.08;55.65;93252.22;5118414;28;20200;-75
2022/09/24 09:28:26;;;;;;;11.53;10.73;;;;;;;12.65;55.30;93252.06;5129634;28;20191;-76
2022/09/24 09:31:17;;;;;;;11.00;10.30;;;;;;;12.75;56.18;93238.88;5129785;28;20221;-75
2022/09/24 09:34:04;;;;;;;10.47;9.83;;;;;;;13.16;54.02;93241.13;5128162;28;20307;-75
2022/09/24 09:37:08;;;;;;;10.83;10.07;;;;;;;13.33;54.04;93231.78;5127870;28;20251;-75
2022/09/24 09:39:40;;;;;;;9.20;8.70;;;;;;;13.78;52.36;93239.09;5110142;28;20257;-76
2022/09/24 09:42:28;;;;;;;10.97;10.27;;;;;;;13.48;52.97;93242.06;5129485;28;20270;-76
2022/09/24 09:44:54;;;;;;;10.73;10.13;;;;;;;13.34;51.48;93238.56;5128459;27;20254;-75
2022/09/24 09:47:41;;;;;;;11.23;10.63;;;;;;;13.53;50.26;93226.28;5129805;28;20202;-75
2022/09/24 09:50:37;;;;;;;10.23;9.73;;;;;;;13.25;49.19;93216.66;5129653;28;20230;-76
2022/09/24 09:53:04;;;;;;;10.37;9.70;;;;;;;13.34;51.21;93220.19;5112476;28;20209;-75
2022/09/24 09:55:35;;;;;;;10.73;9.83;;;;;;;13.84;51.13;93222.22;5128188;28;20263;-75
2022/09/24 09:58:16;;;;;;;11.00;10.40;;;;;;;13.54;48.89;93233.06;5128144;28;20211;-75
2022/09/24 10:00:43;;;;;;;11.27;10.57;;;;;;;13.42;49.52;93209.09;5126635;28;20239;-76
2022/09/24 10:03:25;;;;;;;10.33;9.53;;;;;;;13.92;48.23;93212.91;5129429;28;20209;-75
2022/09/24 10:06:02;;;;;;;9.57;8.87;;;;;;;14.30;46.26;93207.38;5124255;28;20208;-76
2022/09/24 10:08:28;;;;;;;10.20;9.40;;;;;;;14.26;45.25;93209.03;5129295;28;20278;-75
2022/09/24 10:10:55;;;;;;;9.40;8.97;;;;;;;14.22;44.58;93192.28;5129348;28;20211;-76
2022/09/24 10:13:22;;;;;;;10.27;9.67;;;;;;;14.42;44.63;93207.75;5128725;28;20422;-75
2022/09/24 10:15:49;;;;;;;8.93;8.43;;;;;;;13.96;47.61;93151.69;5127439;28;20207;-76
2022/09/24 10:18:16;;;;;;;9.60;8.93;;;;;;;14.44;44.35;93202.97;5127386;28;20191;-76
2022/09/24 10:20:47;;;;;;;9.97;9.40;;;;;;;14.63;44.65;93202.16;5128246;28;20222;-76
2022/09/24 10:23:21;;;;;;;10.53;9.83;;;;;;;14.55;48.51;93195.72;5126806;28;20213;-75
2022/09/24 10:26:01;;;;;;;10.20;9.60;;;;;;;14.68;43.77;93188.94;5128537;28;20229;-75
2022/09/24 10:31:16;;;;;;;9.40;8.90;;;;;;;14.62;44.70;93195.31;5129466;28;20225;-76
2022/09/24 10:33:45;;;;;;;9.97;9.43;;;;;;;14.52;45.63;93186.53;5131659;28;20412;-76
2022/09/24 10:36:25;;;;;;;10.50;9.90;;;;;;;14.65;44.57;93181.59;5133063;28;20191;-75
2022/09/24 10:39:21;;;;;;;9.97;8.70;;;;;;;14.56;45.37;93183.34;5131555;28;20222;-75
2022/09/24 10:41:52;;;;;;;10.13;9.40;;;;;;;14.78;44.87;93196.63;5113010;28;20196;-76
2022/09/24 10:44:19;;;;;;;10.67;9.90;;;;;;;14.80;44.47;93192.63;5131994;27;20222;-75
2022/09/24 10:47:07;;;;;;;10.57;9.20;;;;;;;14.96;43.79;93185.28;5132479;28;20198;-75
2022/09/24 10:49:42;;;;;;;9.17;8.57;;;;;;;14.87;44.79;93187.00;5131747;28;20299;-75
2022/09/24 10:52:29;;;;;;;10.33;9.63;;;;;;;15.09;44.98;93182.66;5132767;28;20202;-75
2022/09/24 10:55:20;;;;;;;10.27;9.67;;;;;;;15.04;47.04;93177.50;5131152;28;20225;-76
2022/09/24 10:58:13;;;;;;;9.80;9.20;;;;;;;15.53;43.34;93182.84;5131850;28;20195;-76
2022/09/24 11:00:50;;;;;;;10.70;10.10;;;;;;;15.63;40.66;93182.66;5131501;28;20264;-75
2022/09/24 11:03:24;;;;;;;10.30;9.70;;;;;;;14.99;43.67;93176.81;5131313;28;20179;-76
2022/09/24 11:05:59;;;;;;;9.37;8.87;;;;;;;15.03;44.75;93181.19;5132971;28;20211;-76
2022/09/24 11:08:33;;;;;;;10.50;9.80;;;;;;;14.90;43.85;93170.66;5130611;28;20243;-76
2022/09/24 11:11:29;;;;;;;10.80;10.17;;;;;;;15.09;42.10;93184.50;5132688;28;20207;-75
2022/09/24 11:14:15;;;;;;;10.13;9.43;;;;;;;15.41;41.03;93184.44;5126523;28;20238;-76
2022/09/24 11:17:11;;;;;;;9.27;8.77;;;;;;;15.41;41.32;93160.78;5130967;28;20251;-76
2022/09/24 11:19:48;;;;;;;10.10;9.47;;;;;;;15.53;42.12;93168.94;5131418;28;20231;-76
2022/09/24 11:22:25;;;;;;;10.43;9.57;;;;;;;15.68;42.06;93166.78;5132665;28;20899;-75
2022/09/24 11:25:12;;;;;;;9.37;8.77;;;;;;;15.88;41.93;93166.31;5126381;28;20215;-76
2022/09/24 11:27:46;;;;;;;9.20;8.70;;;;;;;16.17;41.04;93163.31;5130831;28;20239;-76
2022/09/24 11:30:56;;;;;;;10.27;9.57;;;;;;;15.90;40.09;93152.88;5131465;28;20231;-76
2022/09/24 11:33:33;;;;;;;9.73;9.23;;;;;;;16.25;38.43;93148.66;5121669;28;20215;-76
2022/09/24 11:36:20;;;;;;;10.90;10.20;;;;;;;16.34;39.73;93154.75;5131983;28;20255;-76
2022/09/24 11:39:08;;;;;;;9.00;8.53;;;;;;;16.35;38.59;93143.91;5130770;28;20286;-76
2022/09/24 11:41:40;;;;;;;9.40;8.93;;;;;;;16.26;38.76;93145.72;5132962;28;20246;-76
2022/09/24 11:44:24;;;;;;;10.03;9.17;;;;;;;16.39;38.65;93144.09;5130769;28;20257;-76
2022/09/24 11:47:08;;;;;;;9.87;9.17;;;;;;;16.61;39.75;93142.22;5131959;28;20179;-76
2022/09/24 11:49:39;;;;;;;10.43;9.63;;;;;;;16.65;39.65;93143.19;5129281;28;20227;-75
2022/09/24 11:52:35;;;;;;;8.93;8.43;;;;;;;16.54;39.36;93118.16;5131802;28;20203;-76
2022/09/24 11:55:33;;;;;;;8.60;8.20;;;;;;;16.76;39.61;93138.44;5130824;28;20216;-75